Time;durP1;ratioP1;P1;durP2;ratioP2;P2;SDS_P1;SDS_P2;PMS_P1;PMS_P2;Temp;Humidity;BMP_temperature;BMP_pressure;BME280_temperature;BME280_humidity;BME280_pressure;Samples;Min_cycle;Max_cycle;Signal;HPM_P1;HPM_P2
2022/07/18 00:00:25;;;;;;;3.50;2.10;;;;;;;13.12;88.30;97178.81;5053818;28;20437;-75
2022/07/18 00:02:51;;;;;;;2.00;1.80;;;;;;;13.40;86.51;97184.47;5088068;28;20431;-75
2022/07/18 00:05:18;;;;;;;2.10;1.90;;;;;;;13.36;85.04;97198.72;5072811;28;20478;-75
2022/07/18 00:07:45;;;;;;;2.60;1.80;;;;;;;13.38;82.97;97168.06;5070579;28;20492;-75
2022/07/18 00:10:11;;;;;;;3.63;1.80;;;;;;;13.08;83.89;97158.53;5091434;28;20478;-75
2022/07/18 00:12:38;;;;;;;6.20;2.43;;;;;;;13.00;84.14;97168.88;5056200;28;20475;-75
2022/07/18 00:15:06;;;;;;;5.13;1.90;;;;;;;13.14;84.03;97189.13;5072279;28;20471;-75
2022/07/18 00:17:33;;;;;;;3.83;1.63;;;;;;;13.09;84.51;97170.69;5057058;28;20518;-75
2022/07/18 00:19:59;;;;;;;5.23;2.37;;;;;;;13.31;82.84;97165.91;5070958;28;20436;-75
2022/07/18 00:22:26;;;;;;;6.90;3.17;;;;;;;13.40;82.79;97197.75;5070064;28;20444;-75
2022/07/18 00:24:53;;;;;;;3.60;2.00;;;;;;;13.35;85.25;97199.78;5069743;28;20472;-75
2022/07/18 00:27:20;;;;;;;6.27;2.77;;;;;;;13.26;87.00;97189.25;5069178;28;20449;-75
2022/07/18 00:29:46;;;;;;;5.17;2.03;;;;;;;13.26;86.79;97189.25;5070810;28;20853;-75
2022/07/18 00:32:13;;;;;;;4.47;2.50;;;;;;;13.19;86.85;97181.00;5071102;28;20463;-75
2022/07/18 00:34:40;;;;;;;2.83;1.80;;;;;;;13.10;86.03;97145.72;5054218;28;20471;-75
2022/07/18 00:37:07;;;;;;;5.70;2.27;;;;;;;12.95;88.59;97190.31;5063475;28;21143;-75
2022/07/18 00:39:34;;;;;;;2.70;2.10;;;;;;;12.48;93.52;97178.94;5070640;28;21017;-74
2022/07/18 00:42:00;;;;;;;6.30;2.60;;;;;;;12.48;93.88;97143.69;5069645;28;20455;-75
2022/07/18 00:44:28;;;;;;;3.83;1.90;;;;;;;12.33;95.13;97143.09;5053959;28;20480;-75
2022/07/18 00:46:58;;;;;;;3.50;1.63;;;;;;;12.89;91.70;97175.66;5068789;28;20808;-75
2022/07/18 00:49:26;;;;;;;6.40;2.10;;;;;;;12.73;90.92;97171.97;5070589;28;20460;-74
2022/07/18 00:51:53;;;;;;;4.70;2.20;;;;;;;12.39;92.42;97149.78;5069615;28;20544;-74
2022/07/18 00:54:20;;;;;;;6.80;2.07;;;;;;;12.61;93.35;97164.69;5053901;28;20817;-75
2022/07/18 00:56:49;;;;;;;2.50;2.30;;;;;;;12.59;92.55;97155.50;5057536;28;20494;-75
2022/07/18 00:59:16;;;;;;;4.23;1.67;;;;;;;12.50;94.92;97152.09;5071934;28;20947;-75
2022/07/18 01:01:43;;;;;;;2.60;1.73;;;;;;;12.43;96.14;97144.66;5068192;28;20480;-75
2022/07/18 01:04:21;;;;;;;4.10;2.40;;;;;;;12.93;92.54;97165.94;5066292;28;20908;-75
2022/07/18 01:06:50;;;;;;;3.93;1.90;;;;;;;12.82;91.77;97174.59;5075069;28;20456;-75
2022/07/18 01:09:17;;;;;;;2.00;1.80;;;;;;;12.75;92.73;97169.78;5076650;28;21853;-75
2022/07/18 01:11:45;;;;;;;4.73;2.03;;;;;;;12.61;94.60;97175.31;5074685;28;20447;-75
2022/07/18 01:14:13;;;;;;;1.60;1.47;;;;;;;12.17;97.83;97155.31;5062350;28;20436;-74
2022/07/18 01:16:40;;;;;;;4.63;2.27;;;;;;;12.42;97.56;97148.41;5075581;28;20480;-74
2022/07/18 01:19:07;;;;;;;3.30;2.87;;;;;;;12.45;95.74;97176.94;5093239;28;20857;-75
2022/07/18 01:21:33;;;;;;;5.30;2.53;;;;;;;12.36;95.12;97152.28;5092613;28;20456;-75
2022/07/18 01:24:00;;;;;;;10.30;2.70;;;;;;;12.54;94.55;97185.63;5075059;28;20499;-75
2022/07/18 01:26:27;;;;;;;2.80;2.03;;;;;;;12.46;96.72;97164.44;5075522;28;20482;-74
2022/07/18 01:28:54;;;;;;;1.90;1.80;;;;;;;11.95;100.00;97168.75;5073877;28;20475;-74
2022/07/18 01:31:20;;;;;;;2.37;2.10;;;;;;;11.76;100.00;97153.16;5073603;28;20448;-76
2022/07/18 01:33:47;;;;;;;8.53;1.90;;;;;;;12.12;100.00;97187.28;5067728;28;20440;-74
2022/07/18 01:36:14;;;;;;;5.67;2.40;;;;;;;11.96;100.00;97165.78;5086655;28;21018;-74
2022/07/18 01:38:41;;;;;;;3.20;2.10;;;;;;;11.99;100.00;97173.09;5069252;28;20525;-74
2022/07/18 01:41:07;;;;;;;2.27;2.07;;;;;;;11.50;100.00;97161.13;5086782;28;20502;-74
2022/07/18 01:43:37;;;;;;;5.63;2.10;;;;;;;11.64;100.00;97167.03;5057027;28;20813;-74
2022/07/18 01:46:04;;;;;;;1.80;1.70;;;;;;;11.63;100.00;97183.25;5069956;28;20967;-74
2022/07/18 01:48:31;;;;;;;2.80;2.20;;;;;;;11.50;100.00;97158.47;5042671;28;20527;-74
2022/07/18 01:50:58;;;;;;;4.33;1.80;;;;;;;11.65;100.00;97184.50;5069738;28;20440;-75
2022/07/18 01:53:25;;;;;;;3.63;1.93;;;;;;;11.73;100.00;97175.75;5060147;28;20448;-74
2022/07/18 01:55:52;;;;;;;4.33;1.83;;;;;;;11.53;100.00;97189.63;5062036;28;20432;-74
2022/07/18 01:58:18;;;;;;;4.70;2.00;;;;;;;11.43;100.00;97163.44;5064308;28;21019;-74
2022/07/18 02:00:45;;;;;;;10.43;2.60;;;;;;;11.55;100.00;97190.09;5070080;28;20439;-74
2022/07/18 02:03:12;;;;;;;2.73;2.20;;;;;;;11.61;100.00;97185.41;5051990;28;21009;-74
2022/07/18 02:05:39;;;;;;;4.70;1.83;;;;;;;11.29;100.00;97129.16;5069727;28;20813;-74
2022/07/18 02:08:06;;;;;;;2.67;2.07;;;;;;;10.82;100.00;97183.72;5077394;28;21043;-75
2022/07/18 02:10:33;;;;;;;2.10;1.67;;;;;;;11.02;100.00;97175.19;5075536;28;20463;-74
2022/07/18 02:12:59;;;;;;;2.43;2.07;;;;;;;11.24;100.00;97182.25;5069118;28;20463;-74
2022/07/18 02:15:26;;;;;;;4.40;1.83;;;;;;;11.52;100.00;97188.84;5069374;28;20451;-74
2022/07/18 02:17:53;;;;;;;4.03;2.23;;;;;;;11.39;100.00;97146.63;5078610;28;20465;-74
2022/07/18 02:20:20;;;;;;;4.43;2.33;;;;;;;11.18;100.00;97173.69;5076531;28;20440;-74
2022/07/18 02:22:46;;;;;;;3.77;1.93;;;;;;;11.00;100.00;97147.50;5083319;28;20497;-75
2022/07/18 02:25:14;;;;;;;4.23;2.10;;;;;;;11.23;100.00;97183.34;5069488;28;20468;-75
2022/07/18 02:27:41;;;;;;;7.47;2.77;;;;;;;10.97;100.00;97188.59;5067095;28;20518;-74
2022/07/18 02:30:09;;;;;;;4.70;2.60;;;;;;;11.07;100.00;97184.84;5063296;28;20433;-74
2022/07/18 02:32:37;;;;;;;3.40;1.80;;;;;;;11.16;100.00;97188.31;5068654;28;20477;-74
2022/07/18 02:35:06;;;;;;;2.00;1.87;;;;;;;11.35;100.00;97188.84;5053010;28;20438;-74
2022/07/18 02:37:33;;;;;;;4.60;2.37;;;;;;;11.04;100.00;97153.72;5070336;28;20452;-74
2022/07/18 02:40:00;;;;;;;1.73;1.63;;;;;;;11.32;100.00;97183.34;5051765;28;20505;-74
2022/07/18 02:42:27;;;;;;;4.37;2.20;;;;;;;11.25;100.00;97179.31;5069901;28;20429;-74
2022/07/18 02:44:54;;;;;;;7.53;1.90;;;;;;;11.44;100.00;97194.13;5052843;28;20476;-74
2022/07/18 02:47:20;;;;;;;4.80;2.20;;;;;;;11.11;100.00;97189.25;5070540;28;20428;-74
2022/07/18 02:49:47;;;;;;;6.10;2.37;;;;;;;10.91;100.00;97169.41;5071910;28;20464;-74
2022/07/18 02:52:14;;;;;;;8.10;3.00;;;;;;;11.16;100.00;97175.84;5072893;28;20452;-74
2022/07/18 02:54:41;;;;;;;5.33;2.23;;;;;;;11.07;100.00;97185.63;5053402;28;20864;-74
2022/07/18 02:57:08;;;;;;;2.80;1.53;;;;;;;10.83;100.00;97201.94;5056106;28;20436;-74
2022/07/18 02:59:34;;;;;;;5.70;2.10;;;;;;;10.94;100.00;97194.47;5071734;28;20805;-74
2022/07/18 03:02:02;;;;;;;7.43;2.13;;;;;;;11.03;100.00;97203.22;5072726;28;20465;-74
2022/07/18 03:04:28;;;;;;;5.57;2.30;;;;;;;10.92;100.00;97188.72;5060156;28;20551;-74
2022/07/18 03:06:55;;;;;;;4.00;2.57;;;;;;;10.91;100.00;97209.09;5072484;28;20939;-74
2022/07/18 03:09:22;;;;;;;4.73;2.13;;;;;;;10.69;100.00;97205.75;5054577;28;20456;-74
2022/07/18 03:11:49;;;;;;;7.30;2.70;;;;;;;10.69;100.00;97185.38;5089348;28;20440;-74
2022/07/18 03:14:15;;;;;;;6.27;2.13;;;;;;;10.73;100.00;97199.53;5063376;28;20473;-74
2022/07/18 03:16:42;;;;;;;4.47;2.10;;;;;;;10.92;100.00;97202.72;5072175;28;20543;-74
2022/07/18 03:19:09;;;;;;;3.97;2.40;;;;;;;10.70;100.00;97205.44;5054270;28;20551;-74
2022/07/18 03:21:35;;;;;;;6.37;4.40;;;;;;;10.68;100.00;97190.94;5073807;28;20439;-74
2022/07/18 03:24:03;;;;;;;2.90;2.70;;;;;;;10.54;100.00;97189.19;5071415;28;20491;-74
2022/07/18 03:26:30;;;;;;;3.50;2.03;;;;;;;10.56;100.00;97187.03;5072324;28;20932;-74
2022/07/18 03:28:57;;;;;;;4.40;2.30;;;;;;;10.38;100.00;97179.31;5070658;28;20528;-74
2022/07/18 03:31:24;;;;;;;6.73;2.53;;;;;;;10.44;100.00;97189.47;5072000;28;20482;-74
2022/07/18 03:33:51;;;;;;;4.67;1.90;;;;;;;10.49;100.00;97191.97;5071021;28;20444;-75
2022/07/18 03:36:18;;;;;;;6.83;2.43;;;;;;;10.34;100.00;97158.75;5073267;28;20524;-75
2022/07/18 03:38:44;;;;;;;4.50;1.87;;;;;;;10.25;100.00;97187.00;5050574;28;21099;-75
2022/07/18 03:41:11;;;;;;;4.37;3.27;;;;;;;10.43;100.00;97189.75;5063311;28;20436;-74
2022/07/18 03:43:39;;;;;;;1.90;1.80;;;;;;;10.57;100.00;97185.94;5072064;28;20478;-74
2022/07/18 03:46:06;;;;;;;2.20;1.93;;;;;;;10.20;100.00;97188.97;5071709;28;20494;-74
2022/07/18 03:48:34;;;;;;;6.20;2.83;;;;;;;10.27;100.00;97197.28;5069449;28;20517;-74
2022/07/18 03:51:01;;;;;;;2.50;1.67;;;;;;;10.31;100.00;97199.03;5064132;28;20479;-74
2022/07/18 03:53:27;;;;;;;5.23;2.97;;;;;;;10.04;100.00;97144.44;5062149;28;20469;-74
2022/07/18 03:55:54;;;;;;;2.77;2.10;;;;;;;10.13;100.00;97170.88;5068435;28;20461;-74
2022/07/18 03:58:21;;;;;;;4.47;2.17;;;;;;;10.42;100.00;97196.13;5051241;28;20493;-73
2022/07/18 04:00:48;;;;;;;4.80;2.40;;;;;;;9.73;100.00;97183.19;5063585;28;20441;-73
2022/07/18 04:03:15;;;;;;;6.03;2.40;;;;;;;9.56;100.00;97173.28;5051113;28;20828;-73
2022/07/18 04:05:42;;;;;;;6.90;2.57;;;;;;;10.11;100.00;97183.63;5047535;28;20461;-73
2022/07/18 04:08:08;;;;;;;3.70;2.20;;;;;;;10.40;100.00;97200.94;5051258;28;20552;-72
2022/07/18 04:10:35;;;;;;;3.40;2.10;;;;;;;10.11;100.00;97172.28;5067665;28;20548;-74
2022/07/18 04:13:02;;;;;;;3.03;2.03;;;;;;;10.33;100.00;97204.78;5081828;28;20495;-74
2022/07/18 04:15:30;;;;;;;7.00;3.10;;;;;;;10.17;100.00;97173.72;5051994;28;20454;-74
2022/07/18 04:17:56;;;;;;;8.00;2.03;;;;;;;10.43;100.00;97190.53;5071662;28;20516;-73
2022/07/18 04:20:24;;;;;;;3.43;2.67;;;;;;;10.77;100.00;97205.78;5060166;28;21042;-73
2022/07/18 04:22:56;;;;;;;4.03;2.00;;;;;;;10.98;100.00;97200.72;5075301;28;20490;-73
2022/07/18 04:25:27;;;;;;;4.50;2.60;;;;;;;11.25;100.00;97192.53;5080804;28;20460;-74
2022/07/18 04:27:54;;;;;;;4.50;2.77;;;;;;;11.37;100.00;97177.94;5085473;28;20536;-74
2022/07/18 04:30:23;;;;;;;7.70;2.10;;;;;;;11.53;100.00;97195.69;5078691;28;21051;-74
2022/07/18 04:32:50;;;;;;;3.40;2.73;;;;;;;11.44;100.00;97171.06;5077170;28;20792;-73
2022/07/18 04:35:21;;;;;;;4.40;2.30;;;;;;;11.58;100.00;97196.63;5082084;28;20457;-73
2022/07/18 04:38:08;;;;;;;7.23;2.40;;;;;;;11.45;100.00;97185.88;5077149;28;20459;-73
2022/07/18 04:40:35;;;;;;;3.37;2.13;;;;;;;11.74;100.00;97182.59;4998269;28;20946;-73
2022/07/18 04:43:03;;;;;;;6.87;3.00;;;;;;;11.62;100.00;97177.16;5025564;28;20441;-73
2022/07/18 04:45:30;;;;;;;7.53;2.57;;;;;;;12.02;100.00;97175.16;5034581;28;20507;-73
2022/07/18 04:47:57;;;;;;;7.20;2.40;;;;;;;11.64;100.00;97177.63;5020681;28;20478;-73
2022/07/18 04:50:24;;;;;;;9.13;2.90;;;;;;;12.07;100.00;97168.91;5014416;28;20446;-73
2022/07/18 04:52:52;;;;;;;6.93;2.57;;;;;;;12.32;100.00;97186.63;4998185;28;20526;-73
2022/07/18 04:55:21;;;;;;;6.00;2.30;;;;;;;12.49;100.00;97182.38;5011054;28;20476;-73
2022/07/18 04:57:49;;;;;;;7.00;2.40;;;;;;;12.58;100.00;97193.75;5001576;28;20488;-73
2022/07/18 05:00:19;;;;;;;3.43;2.40;;;;;;;12.75;100.00;97193.66;5014814;28;20442;-73
2022/07/18 05:02:49;;;;;;;2.97;2.07;;;;;;;13.01;100.00;97191.69;5030568;28;20478;-73
2022/07/18 05:05:16;;;;;;;4.50;2.63;;;;;;;13.08;100.00;97193.03;5030306;28;20466;-73
2022/07/18 05:07:45;;;;;;;3.20;2.43;;;;;;;13.34;100.00;97180.41;5024218;28;20470;-73
2022/07/18 05:10:14;;;;;;;6.73;3.07;;;;;;;13.22;100.00;97161.75;5029509;28;20473;-73
2022/07/18 05:12:43;;;;;;;4.70;2.87;;;;;;;13.33;100.00;97197.47;5037713;28;20540;-73
2022/07/18 05:15:12;;;;;;;4.10;2.33;;;;;;;13.51;100.00;97196.28;5020564;28;20537;-73
2022/07/18 05:17:40;;;;;;;8.97;2.97;;;;;;;13.43;100.00;97165.22;5030420;28;20465;-73
2022/07/18 05:20:09;;;;;;;2.53;2.33;;;;;;;13.28;100.00;97198.44;5073818;28;20437;-73
2022/07/18 05:22:37;;;;;;;3.70;2.83;;;;;;;13.56;100.00;97204.03;5058373;28;20929;-73
2022/07/18 05:25:05;;;;;;;5.03;2.67;;;;;;;13.64;100.00;97205.09;5074703;28;20460;-73
2022/07/18 05:27:32;;;;;;;4.90;3.07;;;;;;;13.96;100.00;97210.78;5075289;28;20461;-73
2022/07/18 05:30:00;;;;;;;3.57;2.40;;;;;;;13.95;100.00;97215.31;5073918;28;20473;-73
2022/07/18 05:32:27;;;;;;;3.50;2.20;;;;;;;14.00;100.00;97188.50;5061922;28;20432;-73
2022/07/18 05:34:54;;;;;;;3.50;2.30;;;;;;;14.06;99.98;97211.16;5083233;28;20428;-73
2022/07/18 05:37:20;;;;;;;4.90;2.57;;;;;;;13.95;100.00;97217.19;5085241;28;20433;-73
2022/07/18 05:39:48;;;;;;;3.00;2.40;;;;;;;14.14;97.89;97183.69;5082034;28;20440;-73
2022/07/18 05:42:14;;;;;;;6.83;2.57;;;;;;;14.40;96.92;97209.25;5058864;28;20505;-73
2022/07/18 05:44:42;;;;;;;2.93;2.53;;;;;;;14.32;96.05;97181.66;5070679;28;20455;-74
2022/07/18 05:47:08;;;;;;;13.03;2.80;;;;;;;14.66;95.93;97211.69;5086411;28;20479;-73
2022/07/18 05:49:35;;;;;;;4.90;2.40;;;;;;;14.97;94.17;97206.63;5054052;28;20445;-73
2022/07/18 05:52:02;;;;;;;3.63;2.20;;;;;;;15.10;92.73;97202.06;5070718;28;20475;-73
2022/07/18 05:54:32;;;;;;;5.47;2.93;;;;;;;15.48;90.70;97203.56;5068625;28;20526;-73
2022/07/18 05:56:58;;;;;;;10.67;2.87;;;;;;;15.63;89.80;97217.03;5057024;28;20456;-74
2022/07/18 05:59:25;;;;;;;2.13;1.93;;;;;;;15.98;86.51;97213.81;5053204;28;21024;-73
2022/07/18 06:01:52;;;;;;;7.80;3.07;;;;;;;16.07;84.77;97197.66;5061248;28;20492;-73
2022/07/18 06:04:19;;;;;;;6.53;2.50;;;;;;;16.27;82.55;97184.09;5090018;28;20438;-73
2022/07/18 06:06:45;;;;;;;2.10;1.90;;;;;;;16.68;81.32;97187.44;5075802;28;20482;-73
2022/07/18 06:09:12;;;;;;;3.30;3.00;;;;;;;17.20;76.90;97199.75;5070041;28;20444;-73
2022/07/18 06:11:39;;;;;;;3.60;1.87;;;;;;;17.72;75.69;97215.44;5068707;28;20455;-73
2022/07/18 06:14:06;;;;;;;4.17;2.20;;;;;;;17.99;72.36;97205.66;5069498;28;20480;-73
2022/07/18 06:16:32;;;;;;;2.70;2.03;;;;;;;18.26;70.34;97222.63;5068328;28;20949;-73
2022/07/18 06:18:59;;;;;;;2.60;2.03;;;;;;;18.60;66.81;97220.97;5070595;28;20829;-73
2022/07/18 06:21:26;;;;;;;2.13;1.77;;;;;;;18.34;63.92;97220.09;5075321;28;20846;-73
2022/07/18 06:23:53;;;;;;;2.90;2.27;;;;;;;18.78;62.19;97220.50;5087769;28;20772;-73
2022/07/18 06:26:20;;;;;;;4.33;2.30;;;;;;;18.78;60.29;97221.28;5067359;28;20468;-73
2022/07/18 06:28:47;;;;;;;3.13;1.87;;;;;;;18.77;59.73;97219.72;5090085;28;20976;-73
2022/07/18 06:31:17;;;;;;;2.57;1.87;;;;;;;18.93;59.43;97227.66;5071151;28;20547;-73
2022/07/18 06:33:44;;;;;;;2.57;2.00;;;;;;;19.17;57.26;97229.97;5073438;28;20522;-73
2022/07/18 06:36:11;;;;;;;5.00;2.70;;;;;;;19.37;55.99;97193.09;5055723;28;20786;-73
2022/07/18 06:38:39;;;;;;;2.83;1.60;;;;;;;19.74;55.43;97230.78;5089797;28;20464;-73
2022/07/18 06:41:07;;;;;;;5.10;1.87;;;;;;;19.77;54.50;97227.41;5066758;28;20803;-73
2022/07/18 06:43:38;;;;;;;2.60;1.93;;;;;;;19.83;53.80;97224.38;5052952;28;20441;-73
2022/07/18 06:46:05;;;;;;;3.63;1.60;;;;;;;19.66;53.03;97190.81;5073364;28;20837;-73
2022/07/18 06:48:34;;;;;;;2.90;1.90;;;;;;;19.62;53.07;97201.50;5072990;28;20452;-72
2022/07/18 06:51:05;;;;;;;2.60;1.80;;;;;;;20.14;54.09;97225.91;5055655;28;20448;-73
2022/07/18 06:53:32;;;;;;;2.53;1.50;;;;;;;19.90;52.57;97217.22;5069293;28;20475;-73
2022/07/18 06:56:02;;;;;;;2.60;1.70;;;;;;;20.37;53.27;97232.69;5071719;28;20440;-73
2022/07/18 06:58:33;;;;;;;2.57;1.67;;;;;;;20.97;52.24;97221.03;5089569;28;20457;-73
2022/07/18 07:01:00;;;;;;;7.10;1.70;;;;;;;21.08;51.46;97226.47;5067938;28;20438;-73
2022/07/18 07:03:27;;;;;;;1.93;1.70;;;;;;;21.14;50.67;97198.09;5082274;28;20434;-73
2022/07/18 07:05:54;;;;;;;6.00;1.90;;;;;;;21.74;50.27;97230.78;5076549;28;20461;-73
2022/07/18 07:08:21;;;;;;;2.80;1.53;;;;;;;21.77;49.51;97238.13;5055963;28;20460;-73
2022/07/18 07:10:47;;;;;;;3.80;2.03;;;;;;;22.12;49.24;97207.88;5071673;28;20850;-73
2022/07/18 07:13:14;;;;;;;4.33;2.60;;;;;;;21.91;48.14;97196.25;5072333;28;20490;-73
2022/07/18 07:15:44;;;;;;;8.43;2.53;;;;;;;22.27;47.93;97230.25;5072135;28;20444;-74
2022/07/18 07:18:10;;;;;;;5.60;2.30;;;;;;;22.05;47.40;97196.28;5053107;28;21066;-73
2022/07/18 07:20:37;;;;;;;1.70;1.60;;;;;;;21.89;48.77;97226.22;5083411;28;20435;-73
2022/07/18 07:23:07;;;;;;;5.47;1.73;;;;;;;21.74;48.37;97216.53;5072384;28;20440;-74
2022/07/18 07:25:35;;;;;;;3.10;1.93;;;;;;;21.77;48.59;97213.13;5073247;28;20502;-74
2022/07/18 07:28:03;;;;;;;4.03;2.37;;;;;;;22.02;48.38;97221.28;5070942;28;20473;-73
2022/07/18 07:30:31;;;;;;;4.50;2.10;;;;;;;22.06;48.65;97214.03;5055567;28;20498;-73
2022/07/18 07:32:58;;;;;;;6.23;1.90;;;;;;;22.71;47.44;97205.72;5062842;28;20839;-72
2022/07/18 07:35:25;;;;;;;6.27;1.93;;;;;;;22.55;46.98;97189.09;5073942;28;20448;-73
2022/07/18 07:37:55;;;;;;;5.77;2.47;;;;;;;22.70;46.99;97216.84;5070702;28;20468;-73
2022/07/18 07:40:27;;;;;;;3.90;1.90;;;;;;;23.09;47.00;97224.22;5072148;28;20979;-73
2022/07/18 07:43:11;;;;;;;4.80;2.30;;;;;;;23.27;45.88;97217.69;5066523;28;20436;-73
2022/07/18 07:45:38;;;;;;;11.37;2.07;;;;;;;23.52;45.76;97223.03;5073045;28;20456;-73
2022/07/18 07:48:06;;;;;;;2.47;1.60;;;;;;;23.28;45.62;97213.06;5083881;28;20468;-73
2022/07/18 07:50:33;;;;;;;1.70;1.60;;;;;;;23.86;44.63;97219.88;5071852;28;20549;-73
2022/07/18 07:53:00;;;;;;;4.30;2.07;;;;;;;24.18;44.39;97222.47;5054140;28;20813;-73
2022/07/18 07:55:28;;;;;;;3.80;2.13;;;;;;;24.28;44.57;97212.75;5064386;28;20802;-73
2022/07/18 07:57:55;;;;;;;3.07;1.93;;;;;;;24.37;44.06;97199.59;5072829;28;20468;-73
2022/07/18 08:00:22;;;;;;;3.30;2.17;;;;;;;24.28;44.28;97189.19;5071525;28;20532;-74
2022/07/18 08:02:56;;;;;;;7.37;2.03;;;;;;;24.42;44.46;97204.59;5075595;28;20961;-73
2022/07/18 08:05:27;;;;;;;5.20;2.40;;;;;;;24.21;43.49;97199.28;5081972;28;20452;-73
2022/07/18 08:07:54;;;;;;;6.40;2.10;;;;;;;24.17;43.78;97202.78;5053646;28;20460;-73
2022/07/18 08:10:21;;;;;;;5.70;1.90;;;;;;;24.09;43.47;97203.97;5054884;28;20548;-73
2022/07/18 08:12:48;;;;;;;4.30;2.30;;;;;;;23.80;44.20;97183.63;5054237;28;20445;-73
2022/07/18 08:15:15;;;;;;;2.33;2.13;;;;;;;24.40;42.91;97172.53;5074760;28;20778;-74
2022/07/18 08:17:42;;;;;;;2.83;2.03;;;;;;;24.72;43.18;97185.09;5055425;28;20469;-73
2022/07/18 08:20:16;;;;;;;2.60;2.13;;;;;;;24.74;42.23;97186.22;5051897;28;20516;-73
2022/07/18 08:22:54;;;;;;;6.97;2.30;;;;;;;24.22;42.40;97209.69;5055743;28;20489;-73
2022/07/18 08:25:21;;;;;;;3.17;2.13;;;;;;;24.11;42.84;97198.94;5091267;28;20462;-73
2022/07/18 08:27:49;;;;;;;2.80;1.77;;;;;;;24.88;42.27;97212.41;5055282;28;20489;-74
2022/07/18 08:30:16;;;;;;;4.07;1.83;;;;;;;25.63;41.24;97217.91;5067832;28;20446;-73
2022/07/18 08:32:43;;;;;;;3.60;2.00;;;;;;;25.55;39.40;97196.75;5053517;28;20440;-74
2022/07/18 08:35:10;;;;;;;4.13;1.87;;;;;;;25.46;39.39;97182.91;5070939;28;20924;-74
2022/07/18 08:37:37;;;;;;;4.03;1.97;;;;;;;25.83;40.18;97204.56;5050206;28;20473;-73
2022/07/18 08:40:05;;;;;;;2.60;2.40;;;;;;;25.65;39.74;97217.53;5082547;28;20427;-74
2022/07/18 08:42:33;;;;;;;2.43;1.93;;;;;;;26.07;39.45;97215.53;5077799;28;20801;-73
2022/07/18 08:45:01;;;;;;;3.97;1.60;;;;;;;25.99;38.94;97212.13;5053737;28;20478;-73
2022/07/18 08:47:29;;;;;;;2.07;1.97;;;;;;;25.74;38.63;97223.25;5043120;28;20445;-74
2022/07/18 08:49:58;;;;;;;4.43;2.07;;;;;;;26.14;38.07;97196.44;5068900;28;20440;-73
2022/07/18 08:52:26;;;;;;;1.97;1.67;;;;;;;26.07;39.20;97223.66;5069221;28;20441;-74
2022/07/18 08:55:14;;;;;;;2.73;2.20;;;;;;;26.31;38.26;97216.38;5064379;28;20465;-74
2022/07/18 08:57:52;;;;;;;2.37;2.17;;;;;;;25.81;38.02;97208.88;5066427;28;20491;-74
2022/07/18 09:00:20;;;;;;;1.80;1.67;;;;;;;26.17;37.70;97188.25;5070691;28;20846;-74
2022/07/18 09:02:57;;;;;;;3.97;2.27;;;;;;;26.84;37.45;97214.84;5074410;28;20433;-74
2022/07/18 09:05:24;;;;;;;5.43;2.30;;;;;;;26.60;37.04;97190.41;5070354;28;20543;-74
2022/07/18 09:08:09;;;;;;;3.03;2.10;;;;;;;26.83;37.18;97207.91;5056455;28;20515;-74
2022/07/18 09:11:03;;;;;;;2.50;1.93;;;;;;;25.93;37.83;97206.41;5079027;28;20988;-74
2022/07/18 09:13:33;;;;;;;5.17;2.27;;;;;;;26.59;37.05;97209.81;5044540;28;21055;-74
2022/07/18 09:16:12;;;;;;;2.57;2.37;;;;;;;26.71;37.02;97207.31;5069917;28;20451;-74
2022/07/18 09:18:47;;;;;;;2.67;1.97;;;;;;;26.79;36.36;97186.25;5069071;28;20456;-74
2022/07/18 09:21:18;;;;;;;3.63;2.37;;;;;;;27.35;36.41;97195.41;5062338;28;20529;-74
2022/07/18 09:23:50;;;;;;;2.60;1.77;;;;;;;26.83;35.71;97186.94;5064993;28;20512;-74
2022/07/18 09:26:35;;;;;;;2.80;1.70;;;;;;;27.61;35.32;97190.28;5071490;28;20456;-74
2022/07/18 09:29:03;;;;;;;5.43;2.47;;;;;;;27.27;34.59;97190.53;5069499;28;20517;-74
2022/07/18 09:31:51;;;;;;;2.10;1.90;;;;;;;26.98;34.52;97192.94;5069173;28;20451;-74
2022/07/18 09:34:38;;;;;;;2.20;1.87;;;;;;;26.79;33.94;97159.88;5070179;28;20428;-74
2022/07/18 09:37:11;;;;;;;3.70;2.07;;;;;;;27.29;33.44;97190.88;5064800;28;20437;-74
2022/07/18 09:39:38;;;;;;;4.60;2.13;;;;;;;26.86;34.32;97167.16;5058430;28;20473;-74
2022/07/18 09:42:18;;;;;;;4.00;1.97;;;;;;;27.45;32.77;97192.91;5081877;28;20441;-74
2022/07/18 09:45:06;;;;;;;1.83;1.73;;;;;;;27.41;32.84;97195.69;5051397;28;21182;-74
2022/07/18 09:47:49;;;;;;;3.33;2.20;;;;;;;27.10;31.48;97184.97;5078481;28;20505;-74
2022/07/18 09:50:24;;;;;;;1.50;1.40;;;;;;;27.01;31.40;97201.03;5066745;28;20866;-74
2022/07/18 09:53:19;;;;;;;1.33;1.23;;;;;;;27.00;32.71;97187.84;5053749;28;20502;-74
2022/07/18 09:56:04;;;;;;;2.73;1.67;;;;;;;27.21;31.75;97195.66;5073366;28;20490;-74
2022/07/18 09:58:41;;;;;;;2.20;1.33;;;;;;;27.29;31.65;97199.03;5073187;28;20478;-74
2022/07/18 10:01:10;;;;;;;2.70;1.60;;;;;;;26.74;31.56;97160.34;5075368;28;20428;-74
2022/07/18 10:03:39;;;;;;;1.97;1.73;;;;;;;27.01;32.61;97184.00;5074163;28;20466;-74
2022/07/18 10:06:06;;;;;;;2.43;1.43;;;;;;;27.50;31.34;97182.31;5073796;28;20460;-74
2022/07/18 10:08:34;;;;;;;4.00;1.87;;;;;;;27.18;32.29;97177.47;5072585;28;20541;-74
2022/07/18 10:11:03;;;;;;;2.23;1.77;;;;;;;27.71;31.19;97186.63;5057344;28;20444;-74
2022/07/18 10:13:31;;;;;;;2.23;1.80;;;;;;;27.30;31.41;97186.97;5072492;28;20506;-74
2022/07/18 10:15:58;;;;;;;1.87;1.47;;;;;;;28.21;30.67;97182.88;5073491;28;20444;-74
2022/07/18 10:18:28;;;;;;;2.67;1.70;;;;;;;28.14;30.53;97183.78;5074096;28;20495;-74
2022/07/18 10:20:59;;;;;;;1.70;1.60;;;;;;;28.07;30.11;97183.19;5073502;28;20428;-74
2022/07/18 10:23:28;;;;;;;1.60;1.50;;;;;;;28.53;30.01;97174.03;5072646;28;20448;-75
2022/07/18 10:26:16;;;;;;;3.03;1.30;;;;;;;28.34;29.97;97188.47;5073418;28;20483;-74
2022/07/18 10:28:55;;;;;;;2.20;1.53;;;;;;;28.74;30.46;97172.78;5056427;28;20859;-74
2022/07/18 10:31:24;;;;;;;1.73;1.50;;;;;;;28.58;30.05;97173.53;5074891;28;20469;-74
2022/07/18 10:33:52;;;;;;;2.73;1.97;;;;;;;28.67;29.78;97178.38;5056114;28;20951;-74
2022/07/18 10:36:23;;;;;;;2.43;1.60;;;;;;;28.43;29.64;97162.19;5062879;28;20465;-74
2022/07/18 10:39:24;;;;;;;2.30;1.57;;;;;;;28.55;29.31;97171.63;5053144;28;20492;-74
2022/07/18 10:41:50;;;;;;;2.23;1.67;;;;;;;28.20;30.00;97165.78;5059566;28;20439;-74
2022/07/18 10:44:20;;;;;;;6.80;2.43;;;;;;;28.98;30.10;97176.09;5077444;28;20441;-74
2022/07/18 10:47:02;;;;;;;2.30;1.60;;;;;;;29.33;29.67;97185.31;5077665;28;20547;-74
2022/07/18 10:49:51;;;;;;;1.93;1.73;;;;;;;28.98;29.08;97170.63;5076460;28;20464;-74
2022/07/18 10:52:24;;;;;;;2.07;1.57;;;;;;;28.64;29.58;97180.00;5076542;28;20424;-75
2022/07/18 10:55:23;;;;;;;3.03;1.40;;;;;;;28.62;29.27;97171.50;5078296;28;20538;-74
2022/07/18 10:57:50;;;;;;;3.23;1.70;;;;;;;29.09;28.44;97176.59;5057708;28;20484;-75
2022/07/18 11:00:25;;;;;;;1.60;1.50;;;;;;;29.40;29.21;97175.00;5078159;28;20451;-74
2022/07/18 11:03:09;;;;;;;7.87;1.60;;;;;;;29.10;28.48;97121.66;5087503;28;20466;-75
2022/07/18 11:05:43;;;;;;;6.17;2.00;;;;;;;29.13;28.51;97167.16;5076766;28;20448;-75
2022/07/18 11:08:10;;;;;;;2.10;1.60;;;;;;;28.90;29.05;97170.06;5068367;28;20465;-75
2022/07/18 11:10:54;;;;;;;4.17;1.43;;;;;;;28.74;29.04;97159.91;5083266;28;20433;-74
2022/07/18 11:13:34;;;;;;;3.00;1.67;;;;;;;29.23;29.13;97162.59;5066188;28;20456;-74
2022/07/18 11:16:07;;;;;;;16.93;2.50;;;;;;;28.73;30.13;97163.06;5075998;28;20448;-74
2022/07/18 11:18:40;;;;;;;4.97;1.67;;;;;;;29.10;29.23;97162.53;5055734;28;20848;-74
2022/07/18 11:21:22;;;;;;;3.00;1.53;;;;;;;28.74;29.30;97161.88;5082567;28;20481;-74
2022/07/18 11:24:06;;;;;;;1.60;1.50;;;;;;;29.02;29.38;97138.66;5085734;28;20498;-75
2022/07/18 11:26:35;;;;;;;2.10;1.90;;;;;;;30.18;28.24;97155.72;5075769;28;20460;-75
2022/07/18 11:29:10;;;;;;;4.20;1.83;;;;;;;30.02;28.31;97159.25;5051099;28;21039;-74
2022/07/18 11:31:44;;;;;;;3.47;1.50;;;;;;;30.70;27.44;97161.94;5075716;28;20435;-75
2022/07/18 11:34:11;;;;;;;2.60;2.30;;;;;;;29.44;28.94;97142.97;5074616;28;20443;-75
2022/07/18 11:36:41;;;;;;;2.20;1.50;;;;;;;29.57;29.09;97151.22;5074832;28;20508;-75
2022/07/18 11:39:09;;;;;;;1.70;1.13;;;;;;;30.23;27.28;97149.72;5057554;28;20472;-75